Springboro, Pennsylvania
Current Conditions -  °F | °C
As of 5:53 PM on Tuesday 27 Jan 2015 (Local Time) from KGKJ Reporting Station
Overcast Overcast  
Wind Chill:   Ceiling: 1400
Heat Index: 16°   Visibility: 10mi
Dew Point: 10°   Wind: 8mph
Humidity: 77%   Direction: 330°NNW
Pressure: 30.03"   Gusts: NA
Location:  41.8°N, 80.37°W
Report Text: KGKJ 272253Z AUTO 33007KT 10SM BKN014 OVC055 M09/M12 A3003 RMK AO2 SLP194 T10891122 TSNO
Loading
Personal Weather Stations






























Interactive Weather Map New forecast layout! Learn more

10-Day Weather Forecast

Advertisements
Track Severe Weather on mobile